createdAt,value
2023-04-06T00:02:06.408Z,5.65
2023-04-06T00:07:08.415Z,7.28
2023-04-06T00:12:10.264Z,5.60
2023-04-06T00:17:12.394Z,6.75
2023-04-06T00:22:14.241Z,7.53
2023-04-06T00:27:16.201Z,6.45
2023-04-06T00:32:18.050Z,8.77
2023-04-06T00:37:20.589Z,7.43
2023-04-06T00:42:27.162Z,6.43
2023-04-06T00:47:29.687Z,5.73
2023-04-06T00:52:31.946Z,6.20
2023-04-06T00:57:33.884Z,10.50
2023-04-06T01:02:35.800Z,5.60
2023-04-06T01:07:38.328Z,5.13
2023-04-06T01:12:51.399Z,6.70
2023-04-06T01:18:03.509Z,4.60
2023-04-06T01:23:05.779Z,4.35
2023-04-06T01:28:08.843Z,5.38
2023-04-06T01:33:29.354Z,5.65
2023-04-06T01:38:36.557Z,5.63
2023-04-06T01:43:39.182Z,4.20
2023-04-06T01:48:44.210Z,5.18
2023-04-06T01:54:15.563Z,4.20
2023-04-06T02:05:15.454Z,5.00
2023-04-06T02:10:19.271Z,7.40
2023-04-06T02:15:21.057Z,4.90
2023-04-06T02:20:23.128Z,4.03
2023-04-06T02:25:25.544Z,4.57
2023-04-06T02:30:27.290Z,4.50
2023-04-06T02:35:29.924Z,3.85
2023-04-06T02:40:32.777Z,3.45
2023-04-06T02:45:46.973Z,4.60
2023-04-06T02:50:49.695Z,4.78
2023-04-06T02:55:51.466Z,5.10
2023-04-06T03:00:53.218Z,5.40
2023-04-06T03:05:57.261Z,4.20
2023-04-06T03:11:03.072Z,4.88
2023-04-06T03:16:12.338Z,7.70
2023-04-06T03:21:18.022Z,3.90
2023-04-06T03:26:23.644Z,6.18
2023-04-06T03:31:27.977Z,4.78
2023-04-06T03:36:36.364Z,5.32
2023-04-06T03:41:39.460Z,5.60
2023-04-06T03:46:52.483Z,6.97
2023-04-06T03:51:55.365Z,6.45
2023-04-06T03:56:57.366Z,6.55
2023-04-06T04:02:02.194Z,7.60
2023-04-06T04:07:05.327Z,7.15
2023-04-06T04:12:07.437Z,6.30
2023-04-06T04:17:09.203Z,6.47
2023-04-06T04:22:10.962Z,7.07
2023-04-06T04:27:15.638Z,6.20
2023-04-06T04:32:17.778Z,5.93
2023-04-06T04:37:22.000Z,10.05
2023-04-06T04:42:28.208Z,7.20
2023-04-06T04:47:33.688Z,8.73
2023-04-06T04:52:36.010Z,8.35
2023-04-06T04:57:57.999Z,6.57
2023-04-06T05:03:23.643Z,9.00
2023-04-06T05:08:33.135Z,5.32
2023-04-06T05:13:36.649Z,12.48
2023-04-06T05:18:44.611Z,7.03
2023-04-06T05:23:46.863Z,9.15
2023-04-06T05:28:48.795Z,7.53
2023-04-06T05:33:52.511Z,7.68
2023-04-06T05:39:05.541Z,7.60
2023-04-06T05:44:16.074Z,6.47
2023-04-06T05:49:22.689Z,8.50
2023-04-06T05:54:24.659Z,5.47
2023-04-06T05:59:32.935Z,6.53
2023-04-06T06:04:35.968Z,6.60
2023-04-06T06:09:38.406Z,5.38
2023-04-06T06:14:51.918Z,7.75
2023-04-06T06:19:56.227Z,7.05
2023-04-06T06:24:58.293Z,5.30
2023-04-06T06:30:00.165Z,10.32
2023-04-06T06:35:05.766Z,5.65
2023-04-06T06:40:10.691Z,4.82
2023-04-06T06:45:12.672Z,4.95
2023-04-06T06:50:15.608Z,5.35
2023-04-06T06:55:19.940Z,6.28
2023-04-06T07:00:22.089Z,5.13
2023-04-06T07:05:28.787Z,5.78
2023-04-06T07:10:32.885Z,7.05
2023-04-06T07:15:34.755Z,5.72
2023-04-06T07:20:37.396Z,5.80
2023-04-06T07:25:39.701Z,7.68
2023-04-06T07:30:41.672Z,6.90
2023-04-06T07:35:46.562Z,5.57
2023-04-06T07:40:49.151Z,9.60
2023-04-06T07:45:51.227Z,5.75
2023-04-06T07:51:03.692Z,7.88
2023-04-06T07:56:06.713Z,5.35
2023-04-06T08:01:08.532Z,5.22
2023-04-06T08:06:10.648Z,5.38
2023-04-06T08:11:12.457Z,6.85
2023-04-06T08:16:17.460Z,7.43
2023-04-06T08:21:19.447Z,4.97
2023-04-06T08:26:22.068Z,4.60
2023-04-06T08:31:23.900Z,4.97
2023-04-06T08:36:25.931Z,5.35
2023-04-06T08:41:28.988Z,4.50
2023-04-06T08:46:31.831Z,4.63
2023-04-06T08:51:33.868Z,3.97
2023-04-06T08:56:39.220Z,3.58
2023-04-06T09:01:44.799Z,4.30
2023-04-06T09:06:46.629Z,4.43
2023-04-06T09:11:52.902Z,4.47
2023-04-06T09:16:54.697Z,3.50
2023-04-06T09:22:08.558Z,4.22
2023-04-06T09:27:10.825Z,4.13
2023-04-06T09:32:13.372Z,4.43
2023-04-06T09:37:19.388Z,5.35
2023-04-06T09:42:26.617Z,3.37
2023-04-06T09:47:29.955Z,2.40
2023-04-06T09:52:39.424Z,3.03
2023-04-06T09:58:04.172Z,2.55
2023-04-06T10:03:31.563Z,2.58
2023-04-06T10:08:36.273Z,5.18
2023-04-06T10:13:38.575Z,3.22
2023-04-06T10:18:43.940Z,4.15
2023-04-06T10:24:01.836Z,2.85
2023-04-06T10:29:07.309Z,3.08
2023-04-06T10:34:09.408Z,2.58
2023-04-06T10:39:11.610Z,4.72
2023-04-06T10:44:23.846Z,2.38
2023-04-06T10:49:28.897Z,2.53
2023-04-06T10:54:33.022Z,3.03
2023-04-06T10:59:34.971Z,2.80
2023-04-06T11:04:36.976Z,2.45
2023-04-06T11:09:40.357Z,3.22
2023-04-06T11:14:42.715Z,4.47
2023-04-06T11:19:44.671Z,2.92
2023-04-06T11:24:46.512Z,2.72
2023-04-06T11:29:48.836Z,3.55
2023-04-06T11:34:50.765Z,3.05
2023-04-06T11:39:55.820Z,3.05
2023-04-06T11:44:58.799Z,2.95
2023-04-06T11:50:12.242Z,2.67
2023-04-06T11:55:19.425Z,2.60
2023-04-06T12:00:22.586Z,2.50
2023-04-06T12:05:26.014Z,3.90
2023-04-06T12:10:27.897Z,4.22
2023-04-06T12:15:29.749Z,3.80
2023-04-06T12:20:32.555Z,4.10
2023-04-06T12:25:34.514Z,4.22
2023-04-06T12:30:36.811Z,3.38
2023-04-06T12:35:39.989Z,3.80
2023-04-06T12:40:42.060Z,3.35
2023-04-06T12:45:43.849Z,3.78
2023-04-06T12:50:45.806Z,4.65
2023-04-06T12:55:47.801Z,3.33
2023-04-06T13:00:51.305Z,3.47
2023-04-06T13:05:53.336Z,3.08
2023-04-06T13:10:55.653Z,8.82
2023-04-06T13:16:10.119Z,3.25
2023-04-06T13:21:17.083Z,3.65
2023-04-06T13:31:20.797Z,3.75
2023-04-06T13:36:23.059Z,4.45
2023-04-06T13:41:27.397Z,4.03
2023-04-06T13:46:29.255Z,4.57
2023-04-06T13:51:31.860Z,3.63
2023-04-06T13:56:33.729Z,3.40
2023-04-06T14:01:35.582Z,3.58
2023-04-06T14:06:38.166Z,5.22
2023-04-06T14:11:40.194Z,6.53
2023-04-06T14:16:45.154Z,3.35
2023-04-06T14:21:46.889Z,4.40
2023-04-06T14:26:48.607Z,4.00
2023-04-06T14:31:50.365Z,3.22
2023-04-06T14:36:52.152Z,3.63
2023-04-06T14:41:54.018Z,3.45
2023-04-06T14:46:55.779Z,2.60
2023-04-06T14:51:58.289Z,3.40
2023-04-06T14:57:00.045Z,6.32
2023-04-06T15:02:04.064Z,3.67
2023-04-06T15:07:06.265Z,2.95
2023-04-06T15:12:08.072Z,3.42
2023-04-06T15:17:09.726Z,3.83
2023-04-06T15:22:12.538Z,2.75
2023-04-06T15:27:14.187Z,2.95
2023-04-06T15:32:18.768Z,3.03
2023-04-06T15:37:21.194Z,2.88
2023-04-06T15:42:22.904Z,3.45
2023-04-06T15:47:24.916Z,3.17
2023-04-06T15:52:26.847Z,2.55
2023-04-06T15:57:28.818Z,4.18
2023-04-06T16:02:31.050Z,11.35
2023-04-06T16:07:34.376Z,2.50
2023-04-06T16:12:36.096Z,3.08
2023-04-06T16:17:37.866Z,3.05
2023-04-06T16:22:39.982Z,2.58
2023-04-06T16:27:41.818Z,2.90
2023-04-06T16:32:44.639Z,3.30
2023-04-06T16:37:46.630Z,3.17
2023-04-06T16:42:48.349Z,2.63
2023-04-06T16:47:50.769Z,2.72
2023-04-06T16:52:52.656Z,3.13
2023-04-06T16:57:57.880Z,2.53
2023-04-06T17:03:01.248Z,2.95
2023-04-06T17:08:03.206Z,3.97
2023-04-06T17:13:06.293Z,2.65
2023-04-06T17:18:08.104Z,2.42
2023-04-06T17:23:09.863Z,6.22
2023-04-06T17:28:11.650Z,4.90
2023-04-06T17:33:13.767Z,2.95
2023-04-06T17:38:15.585Z,3.08
2023-04-06T17:43:17.975Z,3.65
2023-04-06T17:48:19.974Z,6.78
2023-04-06T17:53:21.929Z,3.58
2023-04-06T17:58:23.856Z,3.85
2023-04-06T18:03:25.647Z,3.70
2023-04-06T18:08:27.327Z,4.50
2023-04-06T18:13:28.928Z,4.32
2023-04-06T18:18:30.611Z,4.35
2023-04-06T18:23:34.207Z,3.35
2023-04-06T18:28:36.152Z,7.45
2023-04-06T18:33:37.839Z,5.00
2023-04-06T18:38:47.819Z,3.53
2023-04-06T18:43:49.731Z,2.97
2023-04-06T18:48:51.378Z,2.72
2023-04-06T18:53:53.026Z,3.15
2023-04-06T18:58:55.128Z,3.13
2023-04-06T19:03:58.733Z,5.00
2023-04-06T19:09:01.240Z,2.95
2023-04-06T19:14:03.075Z,4.82
2023-04-06T19:19:04.989Z,3.88
2023-04-06T19:24:07.150Z,4.07
2023-04-06T19:29:10.399Z,5.82
2023-04-06T19:34:17.391Z,6.32
2023-04-06T19:39:19.160Z,7.22
2023-04-06T19:44:20.977Z,22.38
2023-04-06T19:49:22.719Z,18.25
2023-04-06T19:54:24.803Z,14.00
2023-04-06T19:59:26.674Z,18.70
2023-04-06T20:04:28.630Z,13.68
2023-04-06T20:09:30.474Z,12.38
2023-04-06T20:14:32.233Z,13.95
2023-04-06T20:19:33.876Z,10.73
2023-04-06T20:24:35.626Z,11.18
2023-04-06T20:29:37.506Z,8.02
2023-04-06T20:34:39.465Z,8.65
2023-04-06T20:39:41.734Z,8.10
2023-04-06T20:44:44.269Z,16.38
2023-04-06T20:49:46.221Z,11.55
2023-04-06T20:54:48.552Z,8.15
2023-04-06T20:59:50.480Z,9.75
2023-04-06T21:04:52.257Z,8.77
2023-04-06T21:09:54.053Z,8.52
2023-04-06T21:14:55.717Z,9.48
2023-04-06T21:19:57.378Z,8.77
2023-04-06T21:24:59.113Z,9.23
2023-04-06T21:30:00.834Z,9.85
2023-04-06T21:35:03.135Z,9.02
2023-04-06T21:40:05.770Z,10.40
2023-04-06T21:45:07.869Z,9.40
2023-04-06T21:50:09.846Z,8.52
2023-04-06T21:55:11.821Z,8.27
2023-04-06T22:00:14.013Z,9.15
2023-04-06T22:05:18.570Z,12.88
2023-04-06T22:10:20.485Z,8.52
2023-04-06T22:15:22.294Z,9.07
2023-04-06T22:20:23.998Z,9.80
2023-04-06T22:25:25.702Z,8.85
2023-04-06T22:30:27.331Z,13.23
2023-04-06T22:35:28.965Z,12.38
2023-04-06T22:40:30.597Z,11.82
2023-04-06T22:45:32.253Z,9.65
2023-04-06T22:50:34.034Z,10.52
2023-04-06T22:55:35.937Z,10.80
2023-04-06T23:00:37.583Z,9.15
2023-04-06T23:05:39.322Z,13.48
2023-04-06T23:10:42.081Z,11.10
2023-04-06T23:15:44.481Z,9.75
2023-04-06T23:20:46.372Z,8.40
2023-04-06T23:25:48.001Z,8.15
2023-04-06T23:30:49.672Z,9.88
2023-04-06T23:35:52.134Z,9.18
2023-04-06T23:40:53.861Z,9.98
2023-04-06T23:45:55.697Z,9.68
2023-04-06T23:50:58.654Z,9.70
2023-04-06T23:56:00.584Z,10.07
